createdAt,value
2017-10-22T00:00:15.075Z,0
2017-10-22T00:01:15.798Z,0
2017-10-22T00:02:16.515Z,0
2017-10-22T00:03:17.239Z,0
2017-10-22T00:04:17.950Z,0
2017-10-22T00:05:18.660Z,0
2017-10-22T00:06:19.370Z,0
2017-10-22T00:07:20.079Z,0
2017-10-22T00:08:20.789Z,0
2017-10-22T00:09:21.498Z,0
2017-10-22T00:10:22.207Z,0
2017-10-22T00:11:22.918Z,0
2017-10-22T00:12:23.634Z,0
2017-10-22T00:13:24.352Z,0
2017-10-22T00:14:25.062Z,0
2017-10-22T00:15:25.771Z,0
2017-10-22T00:16:26.480Z,0
2017-10-22T00:17:27.203Z,0
2017-10-22T00:18:27.912Z,0
2017-10-22T00:19:28.635Z,0
2017-10-22T00:20:29.346Z,0
2017-10-22T00:21:30.070Z,0
2017-10-22T00:22:30.782Z,0
2017-10-22T00:23:31.493Z,0
2017-10-22T00:24:32.203Z,0
2017-10-22T00:25:32.926Z,0
2017-10-22T00:26:33.637Z,0
2017-10-22T00:27:34.345Z,0
2017-10-22T00:28:35.355Z,0
2017-10-22T00:29:36.067Z,0
2017-10-22T00:30:36.792Z,0
2017-10-22T00:31:37.519Z,0
2017-10-22T00:32:38.238Z,0
2017-10-22T00:33:38.946Z,0
2017-10-22T00:34:39.671Z,0
2017-10-22T00:35:40.364Z,0
2017-10-22T00:36:41.092Z,0
2017-10-22T00:37:41.802Z,0
2017-10-22T00:38:42.511Z,0
2017-10-22T00:39:43.220Z,0
2017-10-22T00:40:43.934Z,0
2017-10-22T00:41:44.640Z,0
2017-10-22T00:42:45.362Z,0
2017-10-22T00:43:46.076Z,0
2017-10-22T00:44:46.785Z,0
2017-10-22T00:45:47.509Z,0
2017-10-22T00:46:48.222Z,0
2017-10-22T00:47:48.931Z,0
2017-10-22T00:48:49.642Z,0
2017-10-22T00:49:50.363Z,0
2017-10-22T00:50:51.080Z,0
2017-10-22T00:51:51.794Z,0
2017-10-22T00:52:52.504Z,0
2017-10-22T00:53:53.223Z,0
2017-10-22T00:54:53.928Z,0
2017-10-22T00:55:54.639Z,0
2017-10-22T00:56:55.349Z,0
2017-10-22T00:57:56.088Z,0
2017-10-22T00:58:56.782Z,0
2017-10-22T00:59:57.492Z,0
2017-10-22T01:00:58.203Z,0
2017-10-22T01:01:58.930Z,0
2017-10-22T01:02:59.645Z,0
2017-10-22T01:04:00.350Z,0
2017-10-22T01:05:01.061Z,0
2017-10-22T01:06:01.771Z,0
2017-10-22T01:07:02.493Z,0
2017-10-22T01:08:03.214Z,0
2017-10-22T01:09:03.923Z,0
2017-10-22T01:10:04.649Z,0
2017-10-22T01:11:05.369Z,0
2017-10-22T01:12:06.079Z,0
2017-10-22T01:13:06.786Z,0
2017-10-22T01:14:07.510Z,0
2017-10-22T01:15:08.220Z,0
2017-10-22T01:16:08.930Z,0
2017-10-22T01:17:09.653Z,0
2017-10-22T01:18:10.361Z,0
2017-10-22T01:19:11.074Z,0
2017-10-22T01:20:11.797Z,0
2017-10-22T01:21:12.503Z,0
2017-10-22T01:22:13.214Z,0
2017-10-22T01:23:13.928Z,0
2017-10-22T01:24:14.644Z,0
2017-10-22T01:25:15.339Z,0
2017-10-22T01:26:16.049Z,0
2017-10-22T01:27:16.773Z,0
2017-10-22T01:28:17.483Z,0
2017-10-22T01:29:18.192Z,0
2017-10-22T01:30:18.903Z,0
2017-10-22T01:31:19.620Z,0
2017-10-22T01:32:20.321Z,0
2017-10-22T01:33:21.043Z,0
2017-10-22T01:34:21.766Z,0
2017-10-22T01:35:22.476Z,0
2017-10-22T01:36:23.200Z,0
2017-10-22T01:37:23.908Z,0
2017-10-22T01:38:24.630Z,0
2017-10-22T01:39:25.340Z,0
2017-10-22T01:40:26.047Z,0
2017-10-22T01:41:26.757Z,0
2017-10-22T01:42:27.486Z,0
2017-10-22T01:43:28.192Z,0
2017-10-22T01:44:28.901Z,0
2017-10-22T01:45:29.624Z,0
2017-10-22T01:46:30.334Z,0
2017-10-22T01:47:31.042Z,0
2017-10-22T01:48:31.756Z,0
2017-10-22T01:49:32.462Z,0
2017-10-22T01:50:33.171Z,0
2017-10-22T01:51:33.886Z,0
2017-10-22T01:52:34.591Z,0
2017-10-22T01:53:35.301Z,0
2017-10-22T01:54:36.024Z,0
2017-10-22T01:55:36.735Z,0
2017-10-22T01:56:37.443Z,0
2017-10-22T01:57:38.154Z,0
2017-10-22T01:58:38.866Z,0
2017-10-22T01:59:39.588Z,0
2017-10-22T02:00:40.311Z,0
2017-10-22T02:01:41.020Z,0
2017-10-22T02:02:41.731Z,0
2017-10-22T02:03:42.456Z,0
2017-10-22T02:04:43.166Z,0
2017-10-22T02:05:43.876Z,0
2017-10-22T02:06:44.585Z,0
2017-10-22T02:07:45.296Z,0
2017-10-22T02:08:46.006Z,0
2017-10-22T02:09:46.720Z,0
2017-10-22T02:10:47.430Z,0
2017-10-22T02:11:48.134Z,0
2017-10-22T02:12:48.842Z,0
2017-10-22T02:13:49.552Z,0
2017-10-22T02:14:50.261Z,0
2017-10-22T02:15:50.969Z,0
2017-10-22T02:16:51.677Z,0
2017-10-22T02:17:52.387Z,0
2017-10-22T02:18:53.110Z,0
2017-10-22T02:19:53.820Z,0
2017-10-22T02:20:54.542Z,0
2017-10-22T02:21:55.251Z,0
2017-10-22T02:22:55.959Z,0
2017-10-22T02:23:56.670Z,0
2017-10-22T02:24:57.391Z,0
2017-10-22T02:25:58.102Z,0
2017-10-22T02:26:58.807Z,0
2017-10-22T02:27:59.515Z,0
2017-10-22T02:29:00.224Z,0
2017-10-22T02:30:00.933Z,0
2017-10-22T02:31:01.644Z,0
2017-10-22T02:32:02.370Z,0
2017-10-22T02:33:03.074Z,0
2017-10-22T02:34:03.784Z,0
2017-10-22T02:35:04.492Z,0
2017-10-22T02:36:05.202Z,0
2017-10-22T02:37:05.909Z,0
2017-10-22T02:38:06.617Z,0
2017-10-22T02:39:07.326Z,0
2017-10-22T02:40:08.036Z,0
2017-10-22T02:41:08.745Z,0
2017-10-22T02:42:09.454Z,0
2017-10-22T02:43:10.164Z,0
2017-10-22T02:44:10.873Z,0
2017-10-22T02:45:11.582Z,0
2017-10-22T02:46:12.292Z,0
2017-10-22T02:47:13.014Z,0
2017-10-22T02:48:13.724Z,0
2017-10-22T02:49:14.433Z,0
2017-10-22T02:50:15.158Z,0
2017-10-22T02:51:15.867Z,0
2017-10-22T02:52:16.588Z,0
2017-10-22T02:53:17.310Z,0
2017-10-22T02:54:18.018Z,0
2017-10-22T02:55:18.727Z,0
2017-10-22T02:56:19.435Z,0
2017-10-22T02:57:20.143Z,0
2017-10-22T02:58:20.858Z,0
2017-10-22T02:59:21.561Z,0
2017-10-22T03:00:22.268Z,0
2017-10-22T03:01:22.983Z,0
2017-10-22T03:02:23.687Z,0
2017-10-22T03:03:24.409Z,0
2017-10-22T03:04:25.120Z,0
2017-10-22T03:05:25.826Z,0
2017-10-22T03:06:26.535Z,0
2017-10-22T03:07:27.239Z,0
2017-10-22T03:08:27.947Z,0
2017-10-22T03:09:28.655Z,0
2017-10-22T03:10:29.364Z,0
2017-10-22T03:11:30.070Z,0
2017-10-22T03:12:30.788Z,0
2017-10-22T03:13:31.495Z,0
2017-10-22T03:14:32.200Z,0
2017-10-22T03:15:32.910Z,0
2017-10-22T03:16:33.614Z,0
2017-10-22T03:17:34.322Z,0
2017-10-22T03:18:35.035Z,0
2017-10-22T03:19:35.738Z,0
2017-10-22T03:20:36.458Z,0
2017-10-22T03:21:37.166Z,0
2017-10-22T03:22:37.873Z,0
2017-10-22T03:23:38.589Z,0
2017-10-22T03:24:39.307Z,0
2017-10-22T03:25:40.016Z,0
2017-10-22T03:26:40.724Z,0
2017-10-22T03:27:41.445Z,0
2017-10-22T03:28:42.154Z,0
2017-10-22T03:29:42.861Z,0
2017-10-22T03:30:43.571Z,0
2017-10-22T03:31:44.280Z,0
2017-10-22T03:32:44.987Z,0
2017-10-22T03:33:45.698Z,0
2017-10-22T03:34:46.433Z,0
2017-10-22T03:35:47.122Z,0
2017-10-22T03:36:47.829Z,0
2017-10-22T03:37:48.535Z,0
2017-10-22T03:38:49.249Z,0
2017-10-22T03:39:49.951Z,0
2017-10-22T03:40:50.671Z,0
2017-10-22T03:41:51.388Z,0
2017-10-22T03:42:52.096Z,0
2017-10-22T03:43:52.804Z,0
2017-10-22T03:44:53.511Z,0
2017-10-22T03:45:54.228Z,0
2017-10-22T03:46:54.934Z,0
2017-10-22T03:47:55.641Z,0
2017-10-22T03:48:56.347Z,0
2017-10-22T03:49:57.056Z,0
2017-10-22T03:50:57.786Z,0
2017-10-22T03:51:58.494Z,0
2017-10-22T03:52:59.202Z,0
2017-10-22T03:53:59.922Z,0
2017-10-22T03:55:00.629Z,0
2017-10-22T03:56:01.335Z,0
2017-10-22T03:57:02.055Z,0
2017-10-22T03:58:02.776Z,0
2017-10-22T03:59:03.483Z,0
2017-10-22T04:00:04.198Z,0
2017-10-22T04:01:04.902Z,0
2017-10-22T04:02:05.608Z,0
2017-10-22T04:03:06.313Z,0
2017-10-22T04:04:07.020Z,0
2017-10-22T04:05:07.731Z,0
2017-10-22T04:06:08.447Z,0
2017-10-22T04:07:09.153Z,0
2017-10-22T04:08:09.861Z,0
2017-10-22T04:09:10.568Z,0
2017-10-22T04:10:11.288Z,0
2017-10-22T04:11:11.981Z,0
2017-10-22T04:12:12.701Z,0
2017-10-22T04:13:13.420Z,0
2017-10-22T04:14:14.126Z,0
2017-10-22T04:15:14.835Z,0
2017-10-22T04:16:15.552Z,0
2017-10-22T04:17:16.257Z,0
2017-10-22T04:18:16.963Z,0
2017-10-22T04:19:17.680Z,0
2017-10-22T04:20:18.388Z,0
2017-10-22T04:21:19.096Z,0
2017-10-22T04:22:19.806Z,0
2017-10-22T04:23:20.509Z,0
2017-10-22T04:24:21.215Z,0
2017-10-22T04:25:21.923Z,0
2017-10-22T04:26:22.629Z,0
2017-10-22T04:27:23.336Z,0
2017-10-22T04:28:24.054Z,0
2017-10-22T04:29:24.760Z,0
2017-10-22T04:30:25.478Z,0
2017-10-22T04:31:26.184Z,0
2017-10-22T04:32:26.904Z,0
2017-10-22T04:33:27.623Z,0
2017-10-22T04:34:28.334Z,0
2017-10-22T04:35:29.040Z,0
2017-10-22T04:36:29.750Z,0
2017-10-22T04:37:30.459Z,0
2017-10-22T04:38:31.166Z,0
2017-10-22T04:39:31.875Z,0
2017-10-22T04:40:32.584Z,0
2017-10-22T04:41:33.292Z,0
2017-10-22T04:42:34.001Z,0
2017-10-22T04:43:34.709Z,0
2017-10-22T04:44:35.444Z,0
2017-10-22T04:45:36.166Z,0
2017-10-22T04:46:36.874Z,0
2017-10-22T04:47:37.584Z,0
2017-10-22T04:48:38.293Z,0
2017-10-22T04:49:39.010Z,0
2017-10-22T04:50:39.717Z,0
2017-10-22T04:51:40.424Z,0
2017-10-22T04:52:41.133Z,0
2017-10-22T04:53:41.838Z,0
2017-10-22T04:54:42.545Z,0
2017-10-22T04:55:43.251Z,0
2017-10-22T04:56:43.959Z,0
2017-10-22T04:57:44.666Z,0
2017-10-22T04:58:45.374Z,0
2017-10-22T04:59:46.083Z,0
2017-10-22T05:00:46.791Z,0
2017-10-22T05:01:47.499Z,0
2017-10-22T05:02:48.209Z,0
2017-10-22T05:03:48.930Z,0
2017-10-22T05:04:49.637Z,0
2017-10-22T05:05:50.344Z,0
2017-10-22T05:06:51.052Z,0
2017-10-22T05:07:51.772Z,0
2017-10-22T05:08:52.480Z,0
2017-10-22T05:09:53.189Z,0
2017-10-22T05:10:53.898Z,0
2017-10-22T05:11:54.608Z,0
2017-10-22T05:12:55.315Z,0
2017-10-22T05:13:56.036Z,0
2017-10-22T05:14:56.749Z,0
2017-10-22T05:15:57.455Z,0
2017-10-22T05:16:58.165Z,0
2017-10-22T05:17:58.872Z,0
2017-10-22T05:18:59.582Z,0
2017-10-22T05:20:00.290Z,0
2017-10-22T05:21:00.996Z,0
2017-10-22T05:22:01.703Z,0
2017-10-22T05:23:02.412Z,0
2017-10-22T05:24:03.130Z,0
2017-10-22T05:25:03.838Z,0
2017-10-22T05:26:04.546Z,0
2017-10-22T05:27:05.253Z,0
2017-10-22T05:28:05.962Z,0
2017-10-22T05:29:06.668Z,0
2017-10-22T05:30:07.386Z,0
2017-10-22T05:31:08.094Z,0
2017-10-22T05:32:08.800Z,0
2017-10-22T05:33:09.512Z,0
2017-10-22T05:34:10.219Z,0
2017-10-22T05:35:10.926Z,0
2017-10-22T05:36:11.632Z,0
2017-10-22T05:37:12.341Z,0
2017-10-22T05:38:13.046Z,0
2017-10-22T05:39:13.757Z,0
2017-10-22T05:40:14.459Z,0
2017-10-22T05:41:15.168Z,0
2017-10-22T05:42:15.888Z,0
2017-10-22T05:43:16.594Z,4
2017-10-22T05:44:17.301Z,0
2017-10-22T05:45:18.006Z,4
2017-10-22T05:46:18.714Z,0
2017-10-22T05:47:19.420Z,4
2017-10-22T05:48:20.126Z,4
2017-10-22T05:49:20.830Z,4
2017-10-22T05:50:21.536Z,4
2017-10-22T05:51:22.279Z,4
2017-10-22T05:52:22.998Z,4
2017-10-22T05:53:23.717Z,4
2017-10-22T05:54:24.438Z,8
2017-10-22T05:55:25.131Z,12
2017-10-22T05:56:25.839Z,12
2017-10-22T05:57:26.546Z,12
2017-10-22T05:58:27.287Z,20
2017-10-22T05:59:28.019Z,20
2017-10-22T06:00:28.735Z,24
2017-10-22T06:01:29.441Z,24
2017-10-22T06:02:30.149Z,24
2017-10-22T06:03:30.855Z,32
2017-10-22T06:04:31.561Z,32
2017-10-22T06:05:32.268Z,32
2017-10-22T06:06:32.976Z,32
2017-10-22T06:07:33.688Z,32
2017-10-22T06:08:34.394Z,36
2017-10-22T06:09:35.112Z,36
2017-10-22T06:10:35.830Z,44
2017-10-22T06:11:36.535Z,44
2017-10-22T06:12:37.248Z,48
2017-10-22T06:13:37.956Z,56
2017-10-22T06:14:38.661Z,52
2017-10-22T06:15:39.366Z,64
2017-10-22T06:16:40.072Z,64
2017-10-22T06:17:40.780Z,72
2017-10-22T06:18:41.488Z,68
2017-10-22T06:19:42.191Z,84
2017-10-22T06:20:42.903Z,88
2017-10-22T06:21:43.610Z,96
2017-10-22T06:22:44.326Z,124
2017-10-22T06:23:45.035Z,132
2017-10-22T06:24:45.745Z,148
2017-10-22T06:25:46.454Z,152
2017-10-22T06:26:47.176Z,164
2017-10-22T06:27:47.885Z,164
2017-10-22T06:28:48.595Z,152
2017-10-22T06:29:49.307Z,176
2017-10-22T06:30:50.030Z,184
2017-10-22T06:31:50.749Z,208
2017-10-22T06:32:51.457Z,232
2017-10-22T06:33:52.177Z,260
2017-10-22T06:34:52.897Z,248
2017-10-22T06:35:53.604Z,240
2017-10-22T06:36:54.310Z,252
2017-10-22T06:37:55.018Z,272
2017-10-22T06:38:55.729Z,328
2017-10-22T06:39:56.441Z,340
2017-10-22T06:40:57.150Z,304
2017-10-22T06:41:57.868Z,320
2017-10-22T06:42:58.567Z,292
2017-10-22T06:43:59.274Z,296
2017-10-22T06:45:00.024Z,340
2017-10-22T06:46:00.741Z,316
2017-10-22T06:47:01.455Z,332
2017-10-22T06:48:02.147Z,332
2017-10-22T06:49:02.856Z,372
2017-10-22T06:50:03.565Z,380
2017-10-22T06:51:04.274Z,380
2017-10-22T06:52:04.996Z,388
2017-10-22T06:53:05.705Z,356
2017-10-22T06:54:06.438Z,336
2017-10-22T06:55:07.142Z,396
2017-10-22T06:56:07.834Z,448
2017-10-22T06:57:08.544Z,336
2017-10-22T06:58:09.252Z,364
2017-10-22T06:59:09.961Z,288
2017-10-22T07:00:10.668Z,300
2017-10-22T07:01:11.374Z,276
2017-10-22T07:02:12.080Z,280
2017-10-22T07:03:12.803Z,308
2017-10-22T07:04:13.560Z,336
2017-10-22T07:05:14.270Z,332
2017-10-22T07:06:14.981Z,336
2017-10-22T07:07:15.690Z,356
2017-10-22T07:08:16.400Z,304
2017-10-22T07:09:17.114Z,344
2017-10-22T07:10:17.830Z,380
2017-10-22T07:11:18.553Z,380
2017-10-22T07:12:19.262Z,388
2017-10-22T07:13:19.970Z,436
2017-10-22T07:14:20.681Z,516
2017-10-22T07:15:21.389Z,460
2017-10-22T07:16:22.099Z,484
2017-10-22T07:17:22.809Z,460
2017-10-22T07:18:23.521Z,488
2017-10-22T07:19:24.242Z,484
2017-10-22T07:20:24.951Z,528
2017-10-22T07:21:25.662Z,472
2017-10-22T07:22:26.384Z,464
2017-10-22T07:23:27.093Z,564
2017-10-22T07:24:27.814Z,676
2017-10-22T07:25:28.525Z,632
2017-10-22T07:26:29.249Z,676
2017-10-22T07:27:29.969Z,688
2017-10-22T07:28:30.688Z,676
2017-10-22T07:29:31.404Z,704
2017-10-22T07:30:32.116Z,640
2017-10-22T07:31:32.824Z,756
2017-10-22T07:32:33.536Z,724
2017-10-22T07:33:34.245Z,788
2017-10-22T07:34:34.954Z,856
2017-10-22T07:35:35.661Z,888
2017-10-22T07:36:36.373Z,740
2017-10-22T07:37:37.083Z,780
2017-10-22T07:38:37.793Z,824
2017-10-22T07:39:38.502Z,720
2017-10-22T07:40:39.212Z,672
2017-10-22T07:41:39.923Z,688
2017-10-22T07:42:40.633Z,556
2017-10-22T07:43:41.341Z,632
2017-10-22T07:44:42.054Z,648
2017-10-22T07:45:42.778Z,736
2017-10-22T07:46:43.488Z,632
2017-10-22T07:47:44.201Z,748
2017-10-22T07:48:44.923Z,768
2017-10-22T07:49:45.634Z,764
2017-10-22T07:50:46.345Z,640
2017-10-22T07:51:47.057Z,692
2017-10-22T07:52:47.769Z,700
2017-10-22T07:53:48.488Z,744
2017-10-22T07:54:49.193Z,756
2017-10-22T07:55:49.900Z,752
2017-10-22T07:56:50.611Z,748
2017-10-22T07:57:51.324Z,656
2017-10-22T07:58:52.045Z,844
2017-10-22T07:59:52.755Z,736
2017-10-22T08:00:53.468Z,816
2017-10-22T08:01:54.181Z,788
2017-10-22T08:02:54.894Z,784
2017-10-22T08:03:55.605Z,908
2017-10-22T08:04:56.316Z,1012
2017-10-22T08:05:57.029Z,1068
2017-10-22T08:06:57.741Z,944
2017-10-22T08:07:58.468Z,1172
2017-10-22T08:08:59.179Z,1220
2017-10-22T08:09:59.905Z,1400
2017-10-22T08:11:00.618Z,1428
2017-10-22T08:12:01.332Z,1784
2017-10-22T08:13:02.045Z,1236
2017-10-22T08:14:02.756Z,1528
2017-10-22T08:15:03.471Z,1360
2017-10-22T08:16:04.181Z,1460
2017-10-22T08:17:04.894Z,1460
2017-10-22T08:18:05.608Z,1256
2017-10-22T08:19:06.322Z,1208
2017-10-22T08:20:07.034Z,1348
2017-10-22T08:21:07.748Z,1144
2017-10-22T08:22:08.474Z,1060
2017-10-22T08:23:09.184Z,1104
2017-10-22T08:24:09.897Z,1300
2017-10-22T08:25:10.621Z,1140
2017-10-22T08:26:11.334Z,1092
2017-10-22T08:27:12.048Z,1200
2017-10-22T08:28:12.760Z,1212
2017-10-22T08:29:13.472Z,1576
2017-10-22T08:30:14.183Z,1264
2017-10-22T08:31:14.899Z,1352
2017-10-22T08:32:15.610Z,1524
2017-10-22T08:33:16.324Z,1236
2017-10-22T08:34:17.044Z,1368
2017-10-22T08:35:17.753Z,1432
2017-10-22T08:36:18.467Z,1416
2017-10-22T08:37:19.179Z,1400
2017-10-22T08:38:19.894Z,1656
2017-10-22T08:39:20.608Z,1808
2017-10-22T08:40:21.320Z,1868
2017-10-22T08:41:22.036Z,2204
2017-10-22T08:42:22.758Z,1600
2017-10-22T08:43:23.471Z,1676
2017-10-22T08:44:24.184Z,1708
2017-10-22T08:45:24.911Z,1580
2017-10-22T08:46:25.624Z,1828
2017-10-22T08:47:26.337Z,1932
2017-10-22T08:48:27.050Z,2012
2017-10-22T08:49:27.763Z,2300
2017-10-22T08:50:28.486Z,2144
2017-10-22T08:51:29.201Z,2080
2017-10-22T08:52:29.925Z,2332
2017-10-22T08:53:30.637Z,2820
2017-10-22T08:54:31.352Z,2996
2017-10-22T08:55:32.079Z,2716
2017-10-22T08:56:32.807Z,2428
2017-10-22T08:57:33.520Z,3012
2017-10-22T08:58:34.248Z,2644
2017-10-22T08:59:34.963Z,3096
2017-10-22T09:00:35.678Z,2720
2017-10-22T09:01:36.390Z,2272
2017-10-22T09:02:37.104Z,2160
2017-10-22T09:03:37.818Z,2200
2017-10-22T09:04:38.533Z,1872
2017-10-22T09:05:39.249Z,2060
2017-10-22T09:06:39.961Z,1820
2017-10-22T09:07:40.674Z,1668
2017-10-22T09:08:41.388Z,2132
2017-10-22T09:09:42.109Z,2072
2017-10-22T09:10:42.824Z,2028
2017-10-22T09:11:43.551Z,2612
2017-10-22T09:12:44.263Z,2304
2017-10-22T09:13:44.975Z,2580
2017-10-22T09:14:45.689Z,2780
2017-10-22T09:15:46.404Z,3076
2017-10-22T09:16:47.116Z,2488
2017-10-22T09:17:47.830Z,2712
2017-10-22T09:18:48.545Z,2184
2017-10-22T09:19:49.258Z,2496
2017-10-22T09:20:49.970Z,3284
2017-10-22T09:21:50.682Z,3268
2017-10-22T09:22:51.397Z,3908
2017-10-22T09:23:52.112Z,3264
2017-10-22T09:24:52.843Z,3812
2017-10-22T09:25:53.568Z,4152
2017-10-22T09:26:54.281Z,3332
2017-10-22T09:27:54.996Z,2860
2017-10-22T09:28:55.711Z,3156
2017-10-22T09:29:56.426Z,3472
2017-10-22T09:30:57.139Z,4008
2017-10-22T09:31:57.851Z,3316
2017-10-22T09:32:58.562Z,3264
2017-10-22T09:33:59.292Z,2736
2017-10-22T09:35:00.002Z,2920
2017-10-22T09:36:00.717Z,3036
2017-10-22T09:37:01.432Z,3036
2017-10-22T09:38:02.154Z,2584
2017-10-22T09:39:02.869Z,3176
2017-10-22T09:40:03.597Z,3448
2017-10-22T09:41:04.309Z,2884
2017-10-22T09:42:05.022Z,3536
2017-10-22T09:43:05.746Z,3116
2017-10-22T09:44:06.458Z,3040
2017-10-22T09:45:07.174Z,2564
2017-10-22T09:46:07.885Z,2148
2017-10-22T09:47:08.611Z,1968
2017-10-22T09:48:09.322Z,2416
2017-10-22T09:49:10.035Z,2812
2017-10-22T09:50:10.756Z,2728
2017-10-22T09:51:11.460Z,2900
2017-10-22T09:52:12.174Z,2220
2017-10-22T09:53:12.889Z,2292
2017-10-22T09:54:13.603Z,2412
2017-10-22T09:55:14.316Z,3484
2017-10-22T09:56:15.030Z,3260
2017-10-22T09:57:15.762Z,3688
2017-10-22T09:58:16.473Z,4012
2017-10-22T09:59:17.186Z,2580
2017-10-22T10:00:17.907Z,2168
2017-10-22T10:01:18.613Z,2516
2017-10-22T10:02:19.327Z,2952
2017-10-22T10:03:20.040Z,2788
2017-10-22T10:04:20.768Z,2428
2017-10-22T10:05:21.481Z,1940
2017-10-22T10:06:22.193Z,2100
2017-10-22T10:07:22.905Z,1960
2017-10-22T10:08:23.635Z,2264
2017-10-22T10:09:24.348Z,2600
2017-10-22T10:10:25.073Z,2144
2017-10-22T10:11:25.787Z,2036
2017-10-22T10:12:26.515Z,2184
2017-10-22T10:13:27.228Z,2236
2017-10-22T10:14:27.942Z,1736
2017-10-22T10:15:28.654Z,1852
2017-10-22T10:16:29.370Z,1780
2017-10-22T10:17:30.083Z,1712
2017-10-22T10:18:30.797Z,1596
2017-10-22T10:19:31.515Z,2012
2017-10-22T10:20:32.234Z,1812
2017-10-22T10:21:32.943Z,1816
2017-10-22T10:22:33.658Z,1544
2017-10-22T10:23:34.373Z,2044
2017-10-22T10:24:35.085Z,1812
2017-10-22T10:25:35.798Z,1896
2017-10-22T10:26:36.525Z,1804
2017-10-22T10:27:37.237Z,1836
2017-10-22T10:28:37.961Z,1736
2017-10-22T10:29:38.675Z,2348
2017-10-22T10:30:39.402Z,1880
2017-10-22T10:31:40.114Z,1864
2017-10-22T10:32:40.829Z,1828
2017-10-22T10:33:41.556Z,1884
2017-10-22T10:34:42.271Z,2168
2017-10-22T10:35:42.997Z,1956
2017-10-22T10:36:43.712Z,1812
2017-10-22T10:37:44.425Z,1460
2017-10-22T10:38:45.141Z,1688
2017-10-22T10:39:45.857Z,1816
2017-10-22T10:40:46.570Z,1564
2017-10-22T10:41:47.295Z,2196
2017-10-22T10:42:48.021Z,2216
2017-10-22T10:43:48.733Z,2012
2017-10-22T10:44:49.460Z,1852
2017-10-22T10:45:50.172Z,1664
2017-10-22T10:46:50.900Z,1836
2017-10-22T10:47:51.611Z,2272
2017-10-22T10:48:52.325Z,2064
2017-10-22T10:49:53.039Z,2240
2017-10-22T10:50:53.752Z,2012
2017-10-22T10:51:54.470Z,2680
2017-10-22T10:52:55.182Z,2268
2017-10-22T10:53:55.896Z,2880
2017-10-22T10:54:56.608Z,3000
2017-10-22T10:55:57.319Z,2856
2017-10-22T10:56:58.047Z,2692
2017-10-22T10:57:58.773Z,3300
2017-10-22T10:58:59.498Z,2724
2017-10-22T11:00:00.238Z,3148
2017-10-22T11:01:00.939Z,3152
2017-10-22T11:02:01.653Z,2996
2017-10-22T11:03:02.368Z,3836
2017-10-22T11:04:03.096Z,3584
2017-10-22T11:05:03.812Z,3212
2017-10-22T11:06:04.525Z,2968
2017-10-22T11:07:05.238Z,2952
2017-10-22T11:08:05.956Z,3056
2017-10-22T11:09:06.666Z,3368
2017-10-22T11:10:07.381Z,3012
2017-10-22T11:11:08.101Z,3588
2017-10-22T11:12:08.813Z,3708
2017-10-22T11:13:09.526Z,3352
2017-10-22T11:14:10.241Z,2908
2017-10-22T11:15:10.954Z,2752
2017-10-22T11:16:11.668Z,3064
2017-10-22T11:17:12.391Z,2808
2017-10-22T11:18:13.098Z,3208
2017-10-22T11:19:13.813Z,2844
2017-10-22T11:20:14.526Z,2840
2017-10-22T11:21:15.241Z,2840
2017-10-22T11:22:15.958Z,2916
2017-10-22T11:23:16.670Z,3444
2017-10-22T11:24:17.386Z,3548
2017-10-22T11:25:18.101Z,4044
2017-10-22T11:26:18.818Z,3676
2017-10-22T11:27:19.531Z,3480
2017-10-22T11:28:20.247Z,3520
2017-10-22T11:29:20.992Z,3552
2017-10-22T11:30:21.705Z,3276
2017-10-22T11:31:22.422Z,3244
2017-10-22T11:32:23.134Z,2548
2017-10-22T11:33:23.847Z,2608
2017-10-22T11:34:24.562Z,2740
2017-10-22T11:35:25.301Z,3460
2017-10-22T11:36:26.015Z,3444
2017-10-22T11:37:26.732Z,3212
2017-10-22T11:38:27.444Z,3044
2017-10-22T11:39:28.157Z,2932
2017-10-22T11:40:28.871Z,2308
2017-10-22T11:41:29.585Z,2352
2017-10-22T11:42:30.314Z,2164
2017-10-22T11:43:31.028Z,2740
2017-10-22T11:44:31.774Z,1972
2017-10-22T11:45:32.502Z,1752
2017-10-22T11:46:33.216Z,1596
2017-10-22T11:47:33.938Z,1820
2017-10-22T11:48:34.658Z,1884
2017-10-22T11:49:35.372Z,1956
2017-10-22T11:50:36.086Z,1928
2017-10-22T11:51:36.800Z,2104
2017-10-22T11:52:37.515Z,2380
2017-10-22T11:53:38.226Z,2576
2017-10-22T11:54:38.941Z,2472
2017-10-22T11:55:39.654Z,2196
2017-10-22T11:56:40.367Z,2084
2017-10-22T11:57:41.083Z,2024
2017-10-22T11:58:41.796Z,1816
2017-10-22T11:59:42.511Z,2276
2017-10-22T12:00:43.223Z,2452
2017-10-22T12:01:43.937Z,1984
2017-10-22T12:02:44.663Z,2036
2017-10-22T12:03:45.375Z,2204
2017-10-22T12:04:46.086Z,2852
2017-10-22T12:05:46.799Z,3184
2017-10-22T12:06:47.513Z,3388
2017-10-22T12:07:48.228Z,3916
2017-10-22T12:08:48.942Z,4064
2017-10-22T12:09:49.656Z,4348
2017-10-22T12:10:50.384Z,4436
2017-10-22T12:11:51.100Z,4612
2017-10-22T12:12:51.818Z,4432
2017-10-22T12:13:52.546Z,4400
2017-10-22T12:14:53.259Z,4884
2017-10-22T12:15:53.972Z,5400
2017-10-22T12:16:54.687Z,6424
2017-10-22T12:17:55.422Z,7816
2017-10-22T12:18:56.144Z,8712
2017-10-22T12:19:56.858Z,8960
2017-10-22T12:20:57.572Z,9076
2017-10-22T12:21:58.286Z,9004
2017-10-22T12:22:59.002Z,8440
2017-10-22T12:23:59.719Z,8136
2017-10-22T12:25:00.434Z,7688
2017-10-22T12:26:01.148Z,8340
2017-10-22T12:27:01.865Z,7768
2017-10-22T12:28:02.580Z,10208
2017-10-22T12:29:03.312Z,13044
2017-10-22T12:30:04.027Z,13524
2017-10-22T12:31:04.742Z,12668
2017-10-22T12:32:05.462Z,23552
2017-10-22T12:33:06.212Z,23520
2017-10-22T12:34:06.908Z,19264
2017-10-22T12:35:07.637Z,18496
2017-10-22T12:36:08.368Z,17056
2017-10-22T12:37:09.119Z,15572
2017-10-22T12:38:09.806Z,10836
2017-10-22T12:39:10.528Z,14440
2017-10-22T12:40:11.259Z,12496
2017-10-22T12:41:11.975Z,8040
2017-10-22T12:42:12.693Z,6608
2017-10-22T12:43:13.415Z,6696
2017-10-22T12:44:14.129Z,7008
2017-10-22T12:45:14.845Z,8104
2017-10-22T12:46:15.573Z,9332
2017-10-22T12:47:16.290Z,10676
2017-10-22T12:48:17.007Z,9776
2017-10-22T12:49:17.725Z,9528
2017-10-22T12:50:18.507Z,10464
2017-10-22T12:51:19.159Z,10636
2017-10-22T12:52:19.878Z,10676
2017-10-22T12:53:20.596Z,9372
2017-10-22T12:54:21.312Z,7808
2017-10-22T12:55:22.028Z,8792
2017-10-22T12:56:22.748Z,10160
2017-10-22T12:57:23.464Z,9292
2017-10-22T12:58:24.194Z,8848
2017-10-22T12:59:24.909Z,6452
2017-10-22T13:00:25.625Z,4664
2017-10-22T13:01:26.352Z,5412
2017-10-22T13:02:27.069Z,7892
2017-10-22T13:03:27.785Z,8172
2017-10-22T13:04:28.505Z,7332
2017-10-22T13:05:29.221Z,4200
2017-10-22T13:06:29.937Z,3152
2017-10-22T13:07:30.653Z,4068
2017-10-22T13:08:31.383Z,4800
2017-10-22T13:09:32.098Z,3636
2017-10-22T13:10:32.814Z,3092
2017-10-22T13:11:33.535Z,3116
2017-10-22T13:12:34.247Z,3464
2017-10-22T13:13:34.963Z,3232
2017-10-22T13:14:35.677Z,2848
2017-10-22T13:15:36.394Z,3208
2017-10-22T13:16:37.112Z,4376
2017-10-22T13:17:37.840Z,6128
2017-10-22T13:18:38.557Z,7836
2017-10-22T13:19:39.273Z,8608
2017-10-22T13:20:39.988Z,8752
2017-10-22T13:21:40.717Z,8672
2017-10-22T13:22:41.446Z,8148
2017-10-22T13:23:42.161Z,7672
2017-10-22T13:24:42.891Z,7448
2017-10-22T13:25:43.606Z,7120
2017-10-22T13:26:44.323Z,6668
2017-10-22T13:27:45.040Z,6704
2017-10-22T13:28:45.757Z,6584
2017-10-22T13:29:46.472Z,6508
2017-10-22T13:30:47.191Z,6568
2017-10-22T13:31:47.919Z,7056
2017-10-22T13:32:48.650Z,7128
2017-10-22T13:33:49.365Z,6820
2017-10-22T13:34:50.077Z,6740
2017-10-22T13:35:50.793Z,6668
2017-10-22T13:36:51.518Z,6368
2017-10-22T13:37:52.239Z,5952
2017-10-22T13:38:52.950Z,5388
2017-10-22T13:39:53.667Z,5768
2017-10-22T13:40:54.382Z,6096
2017-10-22T13:41:55.097Z,5924
2017-10-22T13:42:55.826Z,5988
2017-10-22T13:43:56.543Z,6004
2017-10-22T13:44:57.262Z,6052
2017-10-22T13:45:57.977Z,6240
2017-10-22T13:46:58.693Z,6396
2017-10-22T13:47:59.413Z,7108
2017-10-22T13:49:00.137Z,7784
2017-10-22T13:50:00.866Z,9464
2017-10-22T13:51:01.583Z,9636
2017-10-22T13:52:02.300Z,8600
2017-10-22T13:53:03.016Z,7720
2017-10-22T13:54:03.738Z,7980
2017-10-22T13:55:04.450Z,10104
2017-10-22T13:56:05.187Z,9188
2017-10-22T13:57:05.884Z,8608
2017-10-22T13:58:06.600Z,7572
2017-10-22T13:59:07.317Z,7024
2017-10-22T14:00:08.034Z,7188
2017-10-22T14:01:08.766Z,7068
2017-10-22T14:02:09.484Z,6680
2017-10-22T14:03:10.196Z,6900
2017-10-22T14:04:10.923Z,7440
2017-10-22T14:05:11.640Z,7664
2017-10-22T14:06:12.370Z,7884
2017-10-22T14:07:13.086Z,7696
2017-10-22T14:08:13.814Z,7596